Time,TemperatureF,DewpointF,PressureIn,WindDirection,WindDirectionDegrees,WindSpeedMPH,WindSpeedGustMPH,Humidity,HourlyPrecipIn,Conditions,Clouds,dailyrainin,SolarRadiationWatts/m^2,SoftwareType,DateUTC
2013-08-27 00:12:00,65.6,64.0,29.84,ESE,110,0.0,0.0,95,0.00,,,0.00,0,weatherlink.com 1.10,2013-08-27 04:12:00,
2013-08-27 00:27:00,65.5,64.0,29.84,ESE,110,0.0,0.0,95,0.00,,,0.00,0,weatherlink.com 1.10,2013-08-27 04:27:00,
2013-08-27 00:42:00,65.5,64.0,29.84,ESE,110,0.0,0.0,95,0.00,,,0.00,0,weatherlink.com 1.10,2013-08-27 04:42:00,
2013-08-27 00:57:00,65.5,64.0,29.84,ESE,110,0.0,0.0,95,0.00,,,0.00,0,weatherlink.com 1.10,2013-08-27 04:57:00,
2013-08-27 01:12:00,65.6,64.0,29.84,ESE,110,0.0,0.0,95,0.00,,,0.00,0,weatherlink.com 1.10,2013-08-27 05:12:00,
2013-08-27 01:27:00,65.6,64.0,29.84,ESE,110,0.0,0.0,95,0.00,,,0.00,0,weatherlink.com 1.10,2013-08-27 05:27:00,
2013-08-27 01:42:00,65.6,64.0,29.84,ESE,110,0.0,0.0,95,0.00,,,0.00,0,weatherlink.com 1.10,2013-08-27 05:42:00,
2013-08-27 01:57:00,65.6,64.0,29.84,ESE,110,0.0,0.0,95,0.00,,,0.00,0,weatherlink.com 1.10,2013-08-27 05:57:00,
2013-08-27 02:12:00,65.6,64.0,29.84,ESE,110,0.0,0.0,95,0.00,,,0.00,0,weatherlink.com 1.10,2013-08-27 06:12:00,
2013-08-27 02:27:00,65.5,64.0,29.83,ESE,110,0.0,0.0,95,0.00,,,0.00,0,weatherlink.com 1.10,2013-08-27 06:27:00,
2013-08-27 02:42:00,65.4,64.0,29.83,ESE,110,0.0,0.0,95,0.00,,,0.00,0,weatherlink.com 1.10,2013-08-27 06:42:00,
2013-08-27 02:57:00,65.3,64.0,29.83,ESE,110,0.0,0.0,95,0.00,,,0.00,0,weatherlink.com 1.10,2013-08-27 06:57:00,
2013-08-27 03:12:00,65.2,64.0,29.83,ESE,110,0.0,0.0,95,0.00,,,0.00,0,weatherlink.com 1.10,2013-08-27 07:12:00,
2013-08-27 03:27:00,65.2,64.0,29.83,ESE,110,0.0,0.0,95,0.00,,,0.00,0,weatherlink.com 1.10,2013-08-27 07:27:00,
2013-08-27 03:42:00,65.2,64.0,29.84,ESE,110,0.0,0.0,95,0.00,,,0.00,0,weatherlink.com 1.10,2013-08-27 07:42:00,
2013-08-27 03:57:00,65.2,64.0,29.83,ESE,110,0.0,0.0,96,0.00,,,0.00,0,weatherlink.com 1.10,2013-08-27 07:57:00,
2013-08-27 04:12:00,65.0,64.0,29.84,ESE,110,0.0,0.0,96,0.00,,,0.00,0,weatherlink.com 1.10,2013-08-27 08:12:00,
2013-08-27 04:27:00,65.0,64.0,29.83,ESE,110,0.0,0.0,96,0.00,,,0.00,0,weatherlink.com 1.10,2013-08-27 08:27:00,
2013-08-27 04:42:00,65.0,64.0,29.83,ESE,110,0.0,0.0,96,0.00,,,0.00,0,weatherlink.com 1.10,2013-08-27 08:42:00,
2013-08-27 04:57:00,64.8,63.0,29.83,ESE,110,0.0,1.0,95,0.00,,,0.00,0,weatherlink.com 1.10,2013-08-27 08:57:00,
2013-08-27 05:12:00,64.7,63.0,29.83,ESE,110,0.0,0.0,95,0.00,,,0.00,0,weatherlink.com 1.10,2013-08-27 09:12:00,
2013-08-27 05:27:00,64.4,63.0,29.84,ESE,110,0.0,0.0,96,0.00,,,0.00,0,weatherlink.com 1.10,2013-08-27 09:27:00,
2013-08-27 05:42:00,64.2,63.0,29.84,ESE,110,0.0,0.0,95,0.00,,,0.00,0,weatherlink.com 1.10,2013-08-27 09:42:00,
2013-08-27 05:57:00,64.2,63.0,29.84,ESE,110,0.0,0.0,95,0.00,,,0.00,0,weatherlink.com 1.10,2013-08-27 09:57:00,
2013-08-27 06:12:00,64.2,63.0,29.84,ESE,110,0.0,1.0,96,0.00,,,0.00,5,weatherlink.com 1.10,2013-08-27 10:12:00,
2013-08-27 06:27:00,64.3,63.0,29.85,ESE,110,0.0,0.0,96,0.00,,,0.00,7,weatherlink.com 1.10,2013-08-27 10:27:00,
2013-08-27 06:42:00,64.5,63.0,29.85,ESE,110,0.0,1.0,96,0.00,,,0.00,14,weatherlink.com 1.10,2013-08-27 10:42:00,
2013-08-27 06:57:00,64.8,64.0,29.85,ESE,110,1.0,2.0,96,0.00,,,0.00,18,weatherlink.com 1.10,2013-08-27 10:57:00,
2013-08-27 07:12:00,64.7,64.0,29.85,ESE,115,1.0,2.0,96,0.00,,,0.00,35,weatherlink.com 1.10,2013-08-27 11:12:00,
2013-08-27 07:27:00,65.4,64.0,29.85,SSW,193,0.0,1.0,96,0.00,,,0.00,100,weatherlink.com 1.10,2013-08-27 11:27:00,
2013-08-27 07:42:00,66.2,65.0,29.85,SSW,193,0.0,1.0,96,0.00,,,0.00,88,weatherlink.com 1.10,2013-08-27 11:42:00,
2013-08-27 07:57:00,66.4,65.0,29.85,SSW,192,1.0,1.0,96,0.00,,,0.00,90,weatherlink.com 1.10,2013-08-27 11:57:00,
2013-08-27 08:12:00,67.2,66.0,29.85,SSW,192,0.0,0.0,95,0.00,,,0.00,114,weatherlink.com 1.10,2013-08-27 12:12:00,
2013-08-27 08:27:00,69.0,67.0,29.85,SSW,192,0.0,1.0,93,0.00,,,0.00,91,weatherlink.com 1.10,2013-08-27 12:27:00,
2013-08-27 08:42:00,69.1,67.0,29.85,SSW,192,0.0,1.0,92,0.00,,,0.00,146,weatherlink.com 1.10,2013-08-27 12:42:00,
2013-08-27 08:57:00,69.7,67.0,29.85,SSW,192,0.0,1.0,90,0.00,,,0.00,148,weatherlink.com 1.10,2013-08-27 12:57:00,
2013-08-27 09:12:00,69.9,67.0,29.85,SSW,192,0.0,1.0,91,0.00,,,0.00,153,weatherlink.com 1.10,2013-08-27 13:12:00,
2013-08-27 09:27:00,70.3,67.0,29.86,SSW,192,0.0,0.0,89,0.00,,,0.00,104,weatherlink.com 1.10,2013-08-27 13:27:00,
2013-08-27 09:42:00,70.2,67.0,29.87,SSW,192,0.0,1.0,89,0.00,,,0.00,62,weatherlink.com 1.10,2013-08-27 13:42:00,
2013-08-27 09:57:00,70.0,67.0,29.87,SSW,192,0.0,1.0,89,0.00,,,0.00,88,weatherlink.com 1.10,2013-08-27 13:57:00,
2013-08-27 10:12:00,70.3,67.0,29.87,SSW,192,0.0,2.0,88,0.00,,,0.00,218,weatherlink.com 1.10,2013-08-27 14:12:00,
2013-08-27 10:28:00,70.9,67.0,29.87,WNW,288,0.0,1.0,87,0.00,,,0.00,195,weatherlink.com 1.10,2013-08-27 14:28:00,
2013-08-27 10:43:00,71.6,67.0,29.87,WNW,288,0.0,1.0,85,0.00,,,0.00,230,weatherlink.com 1.10,2013-08-27 14:43:00,
2013-08-27 10:58:00,72.7,67.0,29.87,NW,309,1.0,3.0,83,0.00,,,0.00,626,weatherlink.com 1.10,2013-08-27 14:58:00,
2013-08-27 11:13:00,74.0,68.0,29.86,NW,311,0.0,2.0,81,0.00,,,0.00,272,weatherlink.com 1.10,2013-08-27 15:13:00,
2013-08-27 11:28:00,74.3,68.0,29.86,West,275,0.0,3.0,80,0.00,,,0.00,116,weatherlink.com 1.10,2013-08-27 15:28:00,
2013-08-27 11:43:00,73.0,67.0,29.86,NW,317,0.0,4.0,81,0.00,,,0.00,325,weatherlink.com 1.10,2013-08-27 15:43:00,
2013-08-27 11:58:00,74.2,67.0,29.86,West,265,1.0,5.0,77,0.00,,,0.00,241,weatherlink.com 1.10,2013-08-27 15:58:00,
2013-08-27 12:13:00,75.3,68.0,29.86,NNW,348,1.0,4.0,79,0.00,,,0.00,721,weatherlink.com 1.10,2013-08-27 16:13:00,
2013-08-27 12:28:00,75.0,68.0,29.85,North,360,3.0,6.0,78,0.00,,,0.00,171,weatherlink.com 1.10,2013-08-27 16:28:00,
2013-08-27 12:43:00,75.9,67.0,29.85,NNE,28,2.0,4.0,73,0.00,,,0.00,775,weatherlink.com 1.10,2013-08-27 16:43:00,
2013-08-27 12:58:00,77.0,66.0,29.85,WNW,300,2.0,5.0,69,0.00,,,0.00,404,weatherlink.com 1.10,2013-08-27 16:58:00,
2013-08-27 13:13:00,76.5,68.0,29.85,WNW,297,2.0,5.0,75,0.00,,,0.00,146,weatherlink.com 1.10,2013-08-27 17:13:00,
2013-08-27 13:28:00,77.3,68.0,29.84,ENE,64,0.0,2.0,72,0.00,,,0.00,821,weatherlink.com 1.10,2013-08-27 17:28:00,
2013-08-27 13:43:00,78.7,67.0,29.84,NE,36,0.0,3.0,68,0.00,,,0.00,782,weatherlink.com 1.10,2013-08-27 17:43:00,
2013-08-27 13:58:00,79.5,68.0,29.83,NE,56,0.0,5.0,67,0.00,,,0.00,863,weatherlink.com 1.10,2013-08-27 17:58:00,
2013-08-27 14:13:00,79.0,67.0,29.83,NNE,18,1.0,6.0,66,0.00,,,0.00,703,weatherlink.com 1.10,2013-08-27 18:13:00,
2013-08-27 14:28:00,78.4,67.0,29.83,NW,307,1.0,4.0,69,0.00,,,0.00,213,weatherlink.com 1.10,2013-08-27 18:28:00,
2013-08-27 14:43:00,77.1,67.0,29.82,NW,313,0.0,3.0,70,0.00,,,0.00,155,weatherlink.com 1.10,2013-08-27 18:43:00,
2013-08-27 14:58:00,77.8,68.0,29.82,NW,313,0.0,0.0,71,0.00,,,0.00,178,weatherlink.com 1.10,2013-08-27 18:58:00,
2013-08-27 15:13:00,78.0,70.0,29.82,NW,313,0.0,1.0,76,0.00,,,0.00,118,weatherlink.com 1.10,2013-08-27 19:13:00,
2013-08-27 15:28:00,78.2,69.0,29.81,NW,313,0.0,0.0,73,0.00,,,0.00,156,weatherlink.com 1.10,2013-08-27 19:28:00,
2013-08-27 15:43:00,77.6,68.0,29.81,NW,313,0.0,1.0,71,0.00,,,0.00,111,weatherlink.com 1.10,2013-08-27 19:43:00,
2013-08-27 15:58:00,77.6,69.0,29.81,NW,313,0.0,0.0,75,0.00,,,0.00,109,weatherlink.com 1.10,2013-08-27 19:58:00,
2013-08-27 16:13:00,77.2,68.0,29.81,NW,313,0.0,1.0,74,0.00,,,0.00,139,weatherlink.com 1.10,2013-08-27 20:13:00,
2013-08-27 16:28:00,77.3,68.0,29.81,NW,307,2.0,3.0,72,0.00,,,0.00,181,weatherlink.com 1.10,2013-08-27 20:28:00,
2013-08-27 16:43:00,77.4,69.0,29.81,WNW,294,0.0,2.0,74,0.00,,,0.00,137,weatherlink.com 1.10,2013-08-27 20:43:00,
2013-08-27 16:58:00,77.0,70.0,29.81,WNW,294,0.0,0.0,80,0.00,,,0.00,114,weatherlink.com 1.10,2013-08-27 20:58:00,
2013-08-27 17:30:00,77.1,68.0,29.81,WSW,257,0.0,2.0,73,0.00,,,0.00,160,weatherlink.com 1.10,2013-08-27 21:30:00,
2013-08-27 17:58:00,76.9,69.0,29.81,NW,309,0.0,4.0,76,0.00,,,0.00,84,weatherlink.com 1.10,2013-08-27 21:58:00,
2013-08-27 18:13:00,76.3,68.0,29.81,NW,309,0.0,1.0,75,0.00,,,0.00,70,weatherlink.com 1.10,2013-08-27 22:13:00,
2013-08-27 18:28:00,75.9,68.0,29.82,NW,308,0.0,2.0,77,0.00,,,0.00,62,weatherlink.com 1.10,2013-08-27 22:28:00,
2013-08-27 18:43:00,75.3,68.0,29.82,NW,308,0.0,0.0,79,0.00,,,0.00,56,weatherlink.com 1.10,2013-08-27 22:43:00,
2013-08-27 18:58:00,74.6,68.0,29.82,NW,308,0.0,0.0,81,0.00,,,0.00,37,weatherlink.com 1.10,2013-08-27 22:58:00,
2013-08-27 19:13:00,73.9,68.0,29.83,NW,306,0.0,0.0,82,0.00,,,0.00,14,weatherlink.com 1.10,2013-08-27 23:13:00,
2013-08-27 19:28:00,72.7,68.0,29.83,NW,306,0.0,0.0,84,0.00,,,0.00,5,weatherlink.com 1.10,2013-08-27 23:28:00,
2013-08-27 19:43:00,71.5,67.0,29.83,NW,306,0.0,1.0,86,0.00,,,0.00,0,weatherlink.com 1.10,2013-08-27 23:43:00,
2013-08-27 19:58:00,70.8,67.0,29.83,NW,306,0.0,0.0,86,0.00,,,0.00,0,weatherlink.com 1.10,2013-08-27 23:58:00,
2013-08-27 20:13:00,70.3,66.0,29.83,NW,306,0.0,0.0,87,0.00,,,0.00,0,weatherlink.com 1.10,2013-08-28 00:13:00,
2013-08-27 20:28:00,69.5,66.0,29.83,NW,306,0.0,0.0,89,0.00,,,0.00,0,weatherlink.com 1.10,2013-08-28 00:28:00,
2013-08-27 20:43:00,68.9,66.0,29.84,NW,306,0.0,0.0,89,0.00,,,0.00,0,weatherlink.com 1.10,2013-08-28 00:43:00,
2013-08-27 20:58:00,68.1,65.0,29.84,NE,41,0.0,2.0,91,0.00,,,0.00,0,weatherlink.com 1.10,2013-08-28 00:58:00,
2013-08-27 21:14:00,67.8,65.0,29.84,NE,41,0.0,0.0,91,0.00,,,0.00,0,weatherlink.com 1.10,2013-08-28 01:14:00,
2013-08-27 21:28:00,67.1,65.0,29.84,NE,41,0.0,0.0,92,0.00,,,0.00,0,weatherlink.com 1.10,2013-08-28 01:28:00,
2013-08-27 21:43:00,66.7,65.0,29.84,NE,41,0.0,0.0,93,0.00,,,0.00,0,weatherlink.com 1.10,2013-08-28 01:43:00,
2013-08-27 21:58:00,66.5,65.0,29.85,NE,41,0.0,0.0,93,0.00,,,0.00,0,weatherlink.com 1.10,2013-08-28 01:58:00,
2013-08-27 22:13:00,66.3,64.0,29.85,NE,41,0.0,0.0,93,0.00,,,0.00,0,weatherlink.com 1.10,2013-08-28 02:13:00,
2013-08-27 22:44:00,65.7,64.0,29.85,NE,41,0.0,0.0,94,0.00,,,0.00,0,weatherlink.com 1.10,2013-08-28 02:44:00,
2013-08-27 22:58:00,65.3,64.0,29.86,NE,41,0.0,0.0,94,0.00,,,0.00,0,weatherlink.com 1.10,2013-08-28 02:58:00,
2013-08-27 23:14:00,65.0,63.0,29.86,NE,41,0.0,1.0,94,0.00,,,0.00,0,weatherlink.com 1.10,2013-08-28 03:14:00,
2013-08-27 23:28:00,64.7,63.0,29.86,NE,41,0.0,0.0,94,0.00,,,0.00,0,weatherlink.com 1.10,2013-08-28 03:28:00,
2013-08-27 23:43:00,64.4,63.0,29.85,NE,41,0.0,0.0,94,0.00,,,0.00,0,weatherlink.com 1.10,2013-08-28 03:43:00,
2013-08-27 23:59:00,64.0,62.0,29.85,NE,41,0.0,0.0,94,0.00,,,0.00,0,weatherlink.com 1.10,2013-08-28 03:59:00,